sensor_id;sensor_type;location;lat;lon;timestamp;P1;durP1;ratioP1;P2;durP2;ratioP2
27804;SDS011;15183;51.350;11.102;2022-09-25T00:01:00;12.07;;;8.70;;
27804;SDS011;15183;51.350;11.102;2022-09-25T00:03:27;12.50;;;8.32;;
27804;SDS011;15183;51.350;11.102;2022-09-25T00:06:28;11.93;;;8.48;;
27804;SDS011;15183;51.350;11.102;2022-09-25T00:08:50;10.93;;;7.70;;
27804;SDS011;15183;51.350;11.102;2022-09-25T00:11:18;9.25;;;7.32;;
27804;SDS011;15183;51.350;11.102;2022-09-25T00:13:52;13.50;;;7.85;;
27804;SDS011;15183;51.350;11.102;2022-09-25T00:16:21;13.75;;;8.15;;
27804;SDS011;15183;51.350;11.102;2022-09-25T00:18:51;10.00;;;8.13;;
27804;SDS011;15183;51.350;11.102;2022-09-25T00:21:36;13.55;;;9.23;;
27804;SDS011;15183;51.350;11.102;2022-09-25T00:24:04;12.32;;;8.40;;
27804;SDS011;15183;51.350;11.102;2022-09-25T00:26:35;13.73;;;9.05;;
27804;SDS011;15183;51.350;11.102;2022-09-25T00:29:05;15.15;;;9.85;;
27804;SDS011;15183;51.350;11.102;2022-09-25T00:31:33;11.68;;;8.55;;
27804;SDS011;15183;51.350;11.102;2022-09-25T00:34:01;10.15;;;8.05;;
27804;SDS011;15183;51.350;11.102;2022-09-25T00:36:29;15.07;;;7.60;;
27804;SDS011;15183;51.350;11.102;2022-09-25T00:38:57;14.30;;;8.05;;
27804;SDS011;15183;51.350;11.102;2022-09-25T00:41:25;9.50;;;7.43;;
27804;SDS011;15183;51.350;11.102;2022-09-25T00:43:54;12.52;;;8.10;;
27804;SDS011;15183;51.350;11.102;2022-09-25T00:49:04;11.55;;;8.02;;
27804;SDS011;15183;51.350;11.102;2022-09-25T00:51:43;11.25;;;7.60;;
27804;SDS011;15183;51.350;11.102;2022-09-25T00:54:44;8.95;;;6.47;;
27804;SDS011;15183;51.350;11.102;2022-09-25T00:57:28;10.27;;;7.88;;
27804;SDS011;15183;51.350;11.102;2022-09-25T00:59:59;11.18;;;7.50;;
27804;SDS011;15183;51.350;11.102;2022-09-25T01:02:33;10.85;;;8.50;;
27804;SDS011;15183;51.350;11.102;2022-09-25T01:05:07;10.73;;;7.82;;
27804;SDS011;15183;51.350;11.102;2022-09-25T01:07:42;11.33;;;7.70;;
27804;SDS011;15183;51.350;11.102;2022-09-25T01:10:11;11.23;;;7.57;;
27804;SDS011;15183;51.350;11.102;2022-09-25T01:12:40;11.02;;;7.97;;
27804;SDS011;15183;51.350;11.102;2022-09-25T01:15:11;11.43;;;7.38;;
27804;SDS011;15183;51.350;11.102;2022-09-25T01:23:42;9.70;;;7.50;;
27804;SDS011;15183;51.350;11.102;2022-09-25T01:26:35;8.40;;;6.93;;
27804;SDS011;15183;51.350;11.102;2022-09-25T01:29:30;9.82;;;7.10;;
27804;SDS011;15183;51.350;11.102;2022-09-25T01:32:09;9.60;;;7.18;;
27804;SDS011;15183;51.350;11.102;2022-09-25T01:37:33;12.07;;;7.40;;
27804;SDS011;15183;51.350;11.102;2022-09-25T01:41:08;9.68;;;7.65;;
27804;SDS011;15183;51.350;11.102;2022-09-25T01:43:34;9.98;;;7.32;;
27804;SDS011;15183;51.350;11.102;2022-09-25T01:46:24;10.65;;;7.70;;
27804;SDS011;15183;51.350;11.102;2022-09-25T01:48:58;12.40;;;7.68;;
27804;SDS011;15183;51.350;11.102;2022-09-25T01:51:38;12.23;;;8.10;;
27804;SDS011;15183;51.350;11.102;2022-09-25T01:54:16;9.77;;;7.38;;
27804;SDS011;15183;51.350;11.102;2022-09-25T01:57:09;10.77;;;7.60;;
27804;SDS011;15183;51.350;11.102;2022-09-25T02:00:07;10.60;;;7.05;;
27804;SDS011;15183;51.350;11.102;2022-09-25T02:02:39;8.90;;;7.15;;
27804;SDS011;15183;51.350;11.102;2022-09-25T02:05:36;10.27;;;6.68;;
27804;SDS011;15183;51.350;11.102;2022-09-25T02:08:35;10.40;;;7.13;;
27804;SDS011;15183;51.350;11.102;2022-09-25T02:11:11;13.25;;;6.97;;
27804;SDS011;15183;51.350;11.102;2022-09-25T02:16:22;11.23;;;7.68;;
27804;SDS011;15183;51.350;11.102;2022-09-25T02:18:56;10.95;;;8.23;;
27804;SDS011;15183;51.350;11.102;2022-09-25T02:21:43;9.85;;;7.65;;
27804;SDS011;15183;51.350;11.102;2022-09-25T02:27:22;12.13;;;7.32;;
27804;SDS011;15183;51.350;11.102;2022-09-25T02:29:52;10.63;;;7.82;;
27804;SDS011;15183;51.350;11.102;2022-09-25T02:32:20;11.80;;;8.43;;
27804;SDS011;15183;51.350;11.102;2022-09-25T02:34:53;12.50;;;8.43;;
27804;SDS011;15183;51.350;11.102;2022-09-25T02:37:19;12.10;;;8.45;;
27804;SDS011;15183;51.350;11.102;2022-09-25T02:39:47;11.65;;;8.02;;
27804;SDS011;15183;51.350;11.102;2022-09-25T02:42:26;13.63;;;9.07;;
27804;SDS011;15183;51.350;11.102;2022-09-25T02:48:00;12.73;;;9.35;;
27804;SDS011;15183;51.350;11.102;2022-09-25T02:50:49;16.55;;;9.70;;
27804;SDS011;15183;51.350;11.102;2022-09-25T02:57:02;10.35;;;7.72;;
27804;SDS011;15183;51.350;11.102;2022-09-25T02:59:46;10.70;;;7.28;;
27804;SDS011;15183;51.350;11.102;2022-09-25T03:02:18;9.65;;;7.65;;
27804;SDS011;15183;51.350;11.102;2022-09-25T03:04:46;10.88;;;7.78;;
27804;SDS011;15183;51.350;11.102;2022-09-25T03:07:15;11.80;;;8.32;;
27804;SDS011;15183;51.350;11.102;2022-09-25T03:09:44;13.48;;;8.30;;
27804;SDS011;15183;51.350;11.102;2022-09-25T03:12:13;11.80;;;8.55;;
27804;SDS011;15183;51.350;11.102;2022-09-25T03:14:40;13.43;;;8.98;;
27804;SDS011;15183;51.350;11.102;2022-09-25T03:17:07;12.52;;;8.93;;
27804;SDS011;15183;51.350;11.102;2022-09-25T03:19:36;13.57;;;9.10;;
27804;SDS011;15183;51.350;11.102;2022-09-25T03:22:02;12.13;;;8.10;;
27804;SDS011;15183;51.350;11.102;2022-09-25T03:24:29;10.13;;;7.32;;
27804;SDS011;15183;51.350;11.102;2022-09-25T03:26:56;9.65;;;7.18;;
27804;SDS011;15183;51.350;11.102;2022-09-25T03:29:22;11.45;;;8.63;;
27804;SDS011;15183;51.350;11.102;2022-09-25T03:31:49;10.85;;;8.40;;
27804;SDS011;15183;51.350;11.102;2022-09-25T03:34:16;12.23;;;8.23;;
27804;SDS011;15183;51.350;11.102;2022-09-25T03:36:43;11.43;;;8.23;;
27804;SDS011;15183;51.350;11.102;2022-09-25T03:39:13;10.98;;;9.00;;
27804;SDS011;15183;51.350;11.102;2022-09-25T03:41:42;11.68;;;8.50;;
27804;SDS011;15183;51.350;11.102;2022-09-25T03:44:09;12.93;;;8.70;;
27804;SDS011;15183;51.350;11.102;2022-09-25T03:46:35;10.25;;;8.00;;
27804;SDS011;15183;51.350;11.102;2022-09-25T03:49:02;10.40;;;8.02;;
27804;SDS011;15183;51.350;11.102;2022-09-25T03:51:30;11.15;;;8.50;;
27804;SDS011;15183;51.350;11.102;2022-09-25T03:53:58;11.82;;;8.50;;
27804;SDS011;15183;51.350;11.102;2022-09-25T03:56:25;12.07;;;8.07;;
27804;SDS011;15183;51.350;11.102;2022-09-25T03:58:54;14.88;;;9.35;;
27804;SDS011;15183;51.350;11.102;2022-09-25T04:01:25;13.15;;;8.07;;
27804;SDS011;15183;51.350;11.102;2022-09-25T04:03:53;11.75;;;8.02;;
27804;SDS011;15183;51.350;11.102;2022-09-25T04:06:21;12.15;;;8.40;;
27804;SDS011;15183;51.350;11.102;2022-09-25T04:08:50;10.57;;;8.38;;
27804;SDS011;15183;51.350;11.102;2022-09-25T04:11:18;13.18;;;9.38;;
27804;SDS011;15183;51.350;11.102;2022-09-25T04:13:47;11.88;;;8.15;;
27804;SDS011;15183;51.350;11.102;2022-09-25T04:16:13;10.75;;;7.55;;
27804;SDS011;15183;51.350;11.102;2022-09-25T04:18:41;11.15;;;8.32;;
27804;SDS011;15183;51.350;11.102;2022-09-25T04:21:09;10.10;;;7.80;;
27804;SDS011;15183;51.350;11.102;2022-09-25T04:23:38;11.25;;;8.63;;
27804;SDS011;15183;51.350;11.102;2022-09-25T04:26:06;11.48;;;7.93;;
27804;SDS011;15183;51.350;11.102;2022-09-25T04:28:33;11.80;;;8.25;;
27804;SDS011;15183;51.350;11.102;2022-09-25T04:31:00;12.27;;;8.75;;
27804;SDS011;15183;51.350;11.102;2022-09-25T04:33:27;11.65;;;7.90;;
27804;SDS011;15183;51.350;11.102;2022-09-25T04:36:13;11.13;;;8.45;;
27804;SDS011;15183;51.350;11.102;2022-09-25T04:38:41;12.63;;;9.00;;
27804;SDS011;15183;51.350;11.102;2022-09-25T04:41:08;11.95;;;8.25;;
27804;SDS011;15183;51.350;11.102;2022-09-25T04:43:35;11.75;;;8.52;;
27804;SDS011;15183;51.350;11.102;2022-09-25T04:46:02;12.20;;;9.32;;
27804;SDS011;15183;51.350;11.102;2022-09-25T04:48:31;11.02;;;8.65;;
27804;SDS011;15183;51.350;11.102;2022-09-25T04:50:58;13.35;;;9.40;;
27804;SDS011;15183;51.350;11.102;2022-09-25T04:53:25;15.57;;;10.18;;
27804;SDS011;15183;51.350;11.102;2022-09-25T04:55:59;12.50;;;9.57;;
27804;SDS011;15183;51.350;11.102;2022-09-25T04:58:28;14.68;;;9.32;;
27804;SDS011;15183;51.350;11.102;2022-09-25T05:00:54;12.82;;;9.15;;
27804;SDS011;15183;51.350;11.102;2022-09-25T05:03:25;14.52;;;9.68;;
27804;SDS011;15183;51.350;11.102;2022-09-25T05:05:52;13.38;;;9.55;;
27804;SDS011;15183;51.350;11.102;2022-09-25T05:08:18;14.10;;;9.55;;
27804;SDS011;15183;51.350;11.102;2022-09-25T05:10:45;14.45;;;10.38;;
27804;SDS011;15183;51.350;11.102;2022-09-25T05:13:11;13.27;;;9.48;;
27804;SDS011;15183;51.350;11.102;2022-09-25T05:15:38;12.63;;;9.75;;
27804;SDS011;15183;51.350;11.102;2022-09-25T05:18:12;13.55;;;9.10;;
27804;SDS011;15183;51.350;11.102;2022-09-25T05:20:47;13.23;;;9.20;;
27804;SDS011;15183;51.350;11.102;2022-09-25T05:23:14;10.48;;;8.18;;
27804;SDS011;15183;51.350;11.102;2022-09-25T05:25:41;14.18;;;9.68;;
27804;SDS011;15183;51.350;11.102;2022-09-25T05:28:08;14.38;;;9.10;;
27804;SDS011;15183;51.350;11.102;2022-09-25T05:30:36;14.95;;;10.40;;
27804;SDS011;15183;51.350;11.102;2022-09-25T05:33:03;12.65;;;8.98;;
27804;SDS011;15183;51.350;11.102;2022-09-25T05:35:31;12.73;;;8.98;;
27804;SDS011;15183;51.350;11.102;2022-09-25T05:37:58;12.02;;;9.27;;
27804;SDS011;15183;51.350;11.102;2022-09-25T05:40:25;14.48;;;9.63;;
27804;SDS011;15183;51.350;11.102;2022-09-25T05:42:51;11.18;;;8.30;;
27804;SDS011;15183;51.350;11.102;2022-09-25T05:45:20;12.90;;;8.52;;
27804;SDS011;15183;51.350;11.102;2022-09-25T05:47:48;13.15;;;9.77;;
27804;SDS011;15183;51.350;11.102;2022-09-25T05:50:23;14.35;;;9.85;;
27804;SDS011;15183;51.350;11.102;2022-09-25T05:52:54;14.93;;;10.35;;
27804;SDS011;15183;51.350;11.102;2022-09-25T05:55:25;12.95;;;9.60;;
27804;SDS011;15183;51.350;11.102;2022-09-25T05:57:52;13.02;;;9.63;;
27804;SDS011;15183;51.350;11.102;2022-09-25T06:00:18;12.60;;;9.45;;
27804;SDS011;15183;51.350;11.102;2022-09-25T06:02:49;12.38;;;9.00;;
27804;SDS011;15183;51.350;11.102;2022-09-25T06:05:17;11.85;;;9.18;;
27804;SDS011;15183;51.350;11.102;2022-09-25T06:07:44;13.65;;;10.40;;
27804;SDS011;15183;51.350;11.102;2022-09-25T06:10:16;12.85;;;10.10;;
27804;SDS011;15183;51.350;11.102;2022-09-25T06:12:42;13.15;;;9.32;;
27804;SDS011;15183;51.350;11.102;2022-09-25T06:15:09;14.43;;;10.13;;
27804;SDS011;15183;51.350;11.102;2022-09-25T06:17:35;15.52;;;10.15;;
27804;SDS011;15183;51.350;11.102;2022-09-25T06:20:02;13.20;;;10.10;;
27804;SDS011;15183;51.350;11.102;2022-09-25T06:22:28;16.58;;;11.07;;
27804;SDS011;15183;51.350;11.102;2022-09-25T06:24:55;13.80;;;10.10;;
27804;SDS011;15183;51.350;11.102;2022-09-25T06:27:21;14.77;;;10.30;;
27804;SDS011;15183;51.350;11.102;2022-09-25T06:29:47;13.98;;;10.23;;
27804;SDS011;15183;51.350;11.102;2022-09-25T06:32:14;16.58;;;10.90;;
27804;SDS011;15183;51.350;11.102;2022-09-25T06:34:41;14.95;;;10.15;;
27804;SDS011;15183;51.350;11.102;2022-09-25T06:37:08;15.05;;;10.32;;
27804;SDS011;15183;51.350;11.102;2022-09-25T06:39:34;14.20;;;10.20;;
27804;SDS011;15183;51.350;11.102;2022-09-25T06:42:00;14.45;;;10.75;;
27804;SDS011;15183;51.350;11.102;2022-09-25T06:44:27;12.32;;;9.30;;
27804;SDS011;15183;51.350;11.102;2022-09-25T06:46:54;13.90;;;10.05;;
27804;SDS011;15183;51.350;11.102;2022-09-25T06:49:20;15.60;;;11.05;;
27804;SDS011;15183;51.350;11.102;2022-09-25T06:51:47;18.17;;;10.60;;
27804;SDS011;15183;51.350;11.102;2022-09-25T06:54:15;17.08;;;10.85;;
27804;SDS011;15183;51.350;11.102;2022-09-25T06:56:42;14.63;;;10.88;;
27804;SDS011;15183;51.350;11.102;2022-09-25T06:59:08;15.05;;;11.10;;
27804;SDS011;15183;51.350;11.102;2022-09-25T07:01:35;13.73;;;10.23;;
27804;SDS011;15183;51.350;11.102;2022-09-25T07:04:01;14.75;;;10.88;;
27804;SDS011;15183;51.350;11.102;2022-09-25T07:06:28;15.52;;;10.75;;
27804;SDS011;15183;51.350;11.102;2022-09-25T07:08:56;13.23;;;10.57;;
27804;SDS011;15183;51.350;11.102;2022-09-25T07:11:24;14.93;;;10.63;;
27804;SDS011;15183;51.350;11.102;2022-09-25T07:13:52;13.50;;;10.25;;
27804;SDS011;15183;51.350;11.102;2022-09-25T07:16:20;15.55;;;11.05;;
27804;SDS011;15183;51.350;11.102;2022-09-25T07:18:52;17.02;;;10.45;;
27804;SDS011;15183;51.350;11.102;2022-09-25T07:21:20;15.43;;;11.02;;
27804;SDS011;15183;51.350;11.102;2022-09-25T07:23:49;12.27;;;10.15;;
27804;SDS011;15183;51.350;11.102;2022-09-25T07:28:55;12.45;;;9.63;;
27804;SDS011;15183;51.350;11.102;2022-09-25T07:31:28;12.83;;;10.10;;
27804;SDS011;15183;51.350;11.102;2022-09-25T07:33:59;13.57;;;10.45;;
27804;SDS011;15183;51.350;11.102;2022-09-25T07:36:33;13.82;;;10.27;;
27804;SDS011;15183;51.350;11.102;2022-09-25T07:39:03;13.73;;;9.85;;
27804;SDS011;15183;51.350;11.102;2022-09-25T07:41:31;12.80;;;9.73;;
27804;SDS011;15183;51.350;11.102;2022-09-25T07:43:58;12.77;;;9.95;;
27804;SDS011;15183;51.350;11.102;2022-09-25T07:46:25;12.73;;;9.80;;
27804;SDS011;15183;51.350;11.102;2022-09-25T07:48:53;13.35;;;10.35;;
27804;SDS011;15183;51.350;11.102;2022-09-25T07:51:20;12.40;;;9.25;;
27804;SDS011;15183;51.350;11.102;2022-09-25T07:53:47;14.82;;;10.15;;
27804;SDS011;15183;51.350;11.102;2022-09-25T07:56:13;13.48;;;9.98;;
27804;SDS011;15183;51.350;11.102;2022-09-25T07:58:40;18.70;;;11.25;;
27804;SDS011;15183;51.350;11.102;2022-09-25T08:01:09;18.45;;;10.98;;
27804;SDS011;15183;51.350;11.102;2022-09-25T08:03:38;16.20;;;10.57;;
27804;SDS011;15183;51.350;11.102;2022-09-25T08:06:05;11.93;;;9.40;;
27804;SDS011;15183;51.350;11.102;2022-09-25T08:08:38;15.77;;;12.57;;
27804;SDS011;15183;51.350;11.102;2022-09-25T08:11:07;13.07;;;10.55;;
27804;SDS011;15183;51.350;11.102;2022-09-25T08:13:39;12.82;;;9.48;;
27804;SDS011;15183;51.350;11.102;2022-09-25T08:16:07;11.07;;;7.97;;
27804;SDS011;15183;51.350;11.102;2022-09-25T08:18:37;12.18;;;8.65;;
27804;SDS011;15183;51.350;11.102;2022-09-25T08:21:08;12.48;;;9.48;;
27804;SDS011;15183;51.350;11.102;2022-09-25T08:23:39;11.75;;;9.32;;
27804;SDS011;15183;51.350;11.102;2022-09-25T08:26:06;14.88;;;11.15;;
27804;SDS011;15183;51.350;11.102;2022-09-25T08:28:33;10.80;;;8.30;;
27804;SDS011;15183;51.350;11.102;2022-09-25T08:31:00;19.67;;;12.65;;
27804;SDS011;15183;51.350;11.102;2022-09-25T08:33:29;14.63;;;11.45;;
27804;SDS011;15183;51.350;11.102;2022-09-25T08:35:57;15.25;;;9.93;;
27804;SDS011;15183;51.350;11.102;2022-09-25T08:38:27;12.02;;;9.00;;
27804;SDS011;15183;51.350;11.102;2022-09-25T08:40:55;11.85;;;9.18;;
27804;SDS011;15183;51.350;11.102;2022-09-25T08:43:34;11.60;;;7.40;;
27804;SDS011;15183;51.350;11.102;2022-09-25T08:46:09;8.38;;;6.85;;
27804;SDS011;15183;51.350;11.102;2022-09-25T08:49:07;9.93;;;7.53;;
27804;SDS011;15183;51.350;11.102;2022-09-25T08:51:38;12.48;;;8.98;;
27804;SDS011;15183;51.350;11.102;2022-09-25T08:54:22;13.60;;;8.20;;
27804;SDS011;15183;51.350;11.102;2022-09-25T08:56:54;8.88;;;6.40;;
27804;SDS011;15183;51.350;11.102;2022-09-25T09:02:03;8.88;;;6.40;;
27804;SDS011;15183;51.350;11.102;2022-09-25T09:04:44;5.32;;;4.80;;
27804;SDS011;15183;51.350;11.102;2022-09-25T09:07:25;5.75;;;4.68;;
27804;SDS011;15183;51.350;11.102;2022-09-25T09:10:20;8.45;;;4.78;;
27804;SDS011;15183;51.350;11.102;2022-09-25T09:12:55;10.45;;;7.78;;
27804;SDS011;15183;51.350;11.102;2022-09-25T09:15:41;6.63;;;5.35;;
27804;SDS011;15183;51.350;11.102;2022-09-25T09:21:43;5.20;;;4.22;;
27804;SDS011;15183;51.350;11.102;2022-09-25T09:49:33;3.22;;;2.92;;
27804;SDS011;15183;51.350;11.102;2022-09-25T09:52:09;3.58;;;2.90;;
27804;SDS011;15183;51.350;11.102;2022-09-25T09:57:58;4.35;;;3.38;;
27804;SDS011;15183;51.350;11.102;2022-09-25T10:00:35;3.58;;;3.17;;
27804;SDS011;15183;51.350;11.102;2022-09-25T10:03:10;3.55;;;2.67;;
27804;SDS011;15183;51.350;11.102;2022-09-25T10:05:52;4.22;;;3.42;;
27804;SDS011;15183;51.350;11.102;2022-09-25T10:08:24;3.45;;;2.67;;
27804;SDS011;15183;51.350;11.102;2022-09-25T10:10:51;3.22;;;2.60;;
27804;SDS011;15183;51.350;11.102;2022-09-25T10:15:49;2.72;;;2.33;;
27804;SDS011;15183;51.350;11.102;2022-09-25T10:18:58;3.10;;;2.80;;
27804;SDS011;15183;51.350;11.102;2022-09-25T10:21:46;2.53;;;2.33;;
27804;SDS011;15183;51.350;11.102;2022-09-25T10:27:24;5.83;;;3.10;;
27804;SDS011;15183;51.350;11.102;2022-09-25T10:32:42;3.17;;;2.88;;
27804;SDS011;15183;51.350;11.102;2022-09-25T10:38:05;2.97;;;2.42;;
27804;SDS011;15183;51.350;11.102;2022-09-25T10:41:01;2.75;;;2.15;;
27804;SDS011;15183;51.350;11.102;2022-09-25T10:43:33;2.53;;;2.33;;
27804;SDS011;15183;51.350;11.102;2022-09-25T10:46:24;2.70;;;2.28;;
27804;SDS011;15183;51.350;11.102;2022-09-25T10:49:21;2.67;;;2.47;;
27804;SDS011;15183;51.350;11.102;2022-09-25T10:52:12;2.75;;;2.53;;
27804;SDS011;15183;51.350;11.102;2022-09-25T10:54:46;3.67;;;2.53;;
27804;SDS011;15183;51.350;11.102;2022-09-25T10:57:14;2.75;;;2.30;;
27804;SDS011;15183;51.350;11.102;2022-09-25T11:00:04;2.40;;;2.20;;
27804;SDS011;15183;51.350;11.102;2022-09-25T11:02:59;2.53;;;2.17;;
27804;SDS011;15183;51.350;11.102;2022-09-25T11:05:32;2.17;;;2.03;;
27804;SDS011;15183;51.350;11.102;2022-09-25T11:08:02;3.75;;;2.38;;
27804;SDS011;15183;51.350;11.102;2022-09-25T11:10:34;2.80;;;2.38;;
27804;SDS011;15183;51.350;11.102;2022-09-25T11:13:19;4.15;;;2.63;;
27804;SDS011;15183;51.350;11.102;2022-09-25T11:16:07;2.88;;;2.58;;
27804;SDS011;15183;51.350;11.102;2022-09-25T11:21:44;2.40;;;2.20;;
27804;SDS011;15183;51.350;11.102;2022-09-25T11:27:25;2.60;;;2.40;;
27804;SDS011;15183;51.350;11.102;2022-09-25T11:36:02;5.07;;;3.10;;
27804;SDS011;15183;51.350;11.102;2022-09-25T11:44:17;2.30;;;2.10;;
27804;SDS011;15183;51.350;11.102;2022-09-25T11:47:00;3.42;;;2.70;;
27804;SDS011;15183;51.350;11.102;2022-09-25T11:49:52;2.97;;;2.40;;
27804;SDS011;15183;51.350;11.102;2022-09-25T11:52:29;2.97;;;2.38;;
27804;SDS011;15183;51.350;11.102;2022-09-25T12:07:13;5.00;;;2.97;;
27804;SDS011;15183;51.350;11.102;2022-09-25T12:10:15;4.40;;;3.22;;
27804;SDS011;15183;51.350;11.102;2022-09-25T12:13:03;4.60;;;3.10;;
27804;SDS011;15183;51.350;11.102;2022-09-25T12:19:01;5.18;;;3.30;;
27804;SDS011;15183;51.350;11.102;2022-09-25T12:21:43;4.30;;;3.58;;
27804;SDS011;15183;51.350;11.102;2022-09-25T12:24:43;4.10;;;3.08;;
27804;SDS011;15183;51.350;11.102;2022-09-25T12:30:20;4.93;;;3.03;;
27804;SDS011;15183;51.350;11.102;2022-09-25T12:35:41;4.60;;;3.10;;
27804;SDS011;15183;51.350;11.102;2022-09-25T12:44:53;4.53;;;3.15;;
27804;SDS011;15183;51.350;11.102;2022-09-25T12:47:38;5.82;;;3.35;;
27804;SDS011;15183;51.350;11.102;2022-09-25T12:50:37;5.43;;;3.40;;
27804;SDS011;15183;51.350;11.102;2022-09-25T12:53:35;5.60;;;3.47;;
27804;SDS011;15183;51.350;11.102;2022-09-25T12:56:14;4.70;;;3.50;;
27804;SDS011;15183;51.350;11.102;2022-09-25T12:59:01;5.13;;;2.90;;
27804;SDS011;15183;51.350;11.102;2022-09-25T13:07:41;5.10;;;3.90;;
27804;SDS011;15183;51.350;11.102;2022-09-25T13:10:28;5.75;;;4.95;;
27804;SDS011;15183;51.350;11.102;2022-09-25T13:13:08;4.03;;;3.53;;
27804;SDS011;15183;51.350;11.102;2022-09-25T13:15:54;8.45;;;5.43;;
27804;SDS011;15183;51.350;11.102;2022-09-25T13:18:27;6.10;;;4.00;;
27804;SDS011;15183;51.350;11.102;2022-09-25T13:20:55;6.60;;;3.47;;
27804;SDS011;15183;51.350;11.102;2022-09-25T13:24:13;3.40;;;2.53;;
27804;SDS011;15183;51.350;11.102;2022-09-25T13:26:46;2.65;;;2.45;;
27804;SDS011;15183;51.350;11.102;2022-09-25T13:29:24;4.60;;;2.55;;
27804;SDS011;15183;51.350;11.102;2022-09-25T13:32:03;6.00;;;3.58;;
27804;SDS011;15183;51.350;11.102;2022-09-25T13:34:43;4.93;;;2.63;;
27804;SDS011;15183;51.350;11.102;2022-09-25T13:37:11;3.33;;;2.47;;
27804;SDS011;15183;51.350;11.102;2022-09-25T13:39:47;6.40;;;2.50;;
27804;SDS011;15183;51.350;11.102;2022-09-25T13:45:26;3.00;;;2.35;;
27804;SDS011;15183;51.350;11.102;2022-09-25T13:48:00;3.78;;;2.33;;
27804;SDS011;15183;51.350;11.102;2022-09-25T13:50:40;3.03;;;2.05;;
27804;SDS011;15183;51.350;11.102;2022-09-25T13:53:24;2.70;;;2.13;;
27804;SDS011;15183;51.350;11.102;2022-09-25T13:56:14;3.90;;;2.28;;
27804;SDS011;15183;51.350;11.102;2022-09-25T14:01:39;5.20;;;2.70;;
27804;SDS011;15183;51.350;11.102;2022-09-25T14:04:31;2.83;;;1.88;;
27804;SDS011;15183;51.350;11.102;2022-09-25T14:07:04;3.55;;;2.58;;
27804;SDS011;15183;51.350;11.102;2022-09-25T14:09:54;4.40;;;2.42;;
27804;SDS011;15183;51.350;11.102;2022-09-25T14:15:15;9.93;;;2.85;;
27804;SDS011;15183;51.350;11.102;2022-09-25T14:18:04;3.00;;;2.43;;
27804;SDS011;15183;51.350;11.102;2022-09-25T14:20:39;6.32;;;2.50;;
27804;SDS011;15183;51.350;11.102;2022-09-25T14:23:28;4.65;;;2.88;;
27804;SDS011;15183;51.350;11.102;2022-09-25T14:25:58;3.85;;;2.13;;
27804;SDS011;15183;51.350;11.102;2022-09-25T14:28:33;6.72;;;2.45;;
27804;SDS011;15183;51.350;11.102;2022-09-25T14:36:42;5.45;;;2.75;;
27804;SDS011;15183;51.350;11.102;2022-09-25T14:42:36;4.25;;;2.33;;
27804;SDS011;15183;51.350;11.102;2022-09-25T14:48:27;2.83;;;2.22;;
27804;SDS011;15183;51.350;11.102;2022-09-25T14:54:01;6.03;;;2.90;;
27804;SDS011;15183;51.350;11.102;2022-09-25T14:56:30;4.82;;;2.55;;
27804;SDS011;15183;51.350;11.102;2022-09-25T14:59:07;4.93;;;2.67;;
27804;SDS011;15183;51.350;11.102;2022-09-25T15:01:45;3.75;;;2.42;;
27804;SDS011;15183;51.350;11.102;2022-09-25T15:04:26;5.82;;;2.42;;
27804;SDS011;15183;51.350;11.102;2022-09-25T15:07:01;4.47;;;2.50;;
27804;SDS011;15183;51.350;11.102;2022-09-25T15:09:35;7.30;;;4.65;;
27804;SDS011;15183;51.350;11.102;2022-09-25T15:12:19;4.30;;;3.33;;
27804;SDS011;15183;51.350;11.102;2022-09-25T15:14:59;3.28;;;2.38;;
27804;SDS011;15183;51.350;11.102;2022-09-25T15:17:41;5.40;;;2.40;;
27804;SDS011;15183;51.350;11.102;2022-09-25T15:20:20;4.90;;;2.30;;
27804;SDS011;15183;51.350;11.102;2022-09-25T15:23:35;3.05;;;2.28;;
27804;SDS011;15183;51.350;11.102;2022-09-25T15:25:46;4.38;;;2.35;;
27804;SDS011;15183;51.350;11.102;2022-09-25T15:28:20;2.38;;;2.17;;
27804;SDS011;15183;51.350;11.102;2022-09-25T15:30:53;4.03;;;2.15;;
27804;SDS011;15183;51.350;11.102;2022-09-25T15:33:26;4.07;;;2.17;;
27804;SDS011;15183;51.350;11.102;2022-09-25T15:35:55;5.57;;;2.53;;
27804;SDS011;15183;51.350;11.102;2022-09-25T15:38:34;5.70;;;2.80;;
27804;SDS011;15183;51.350;11.102;2022-09-25T15:41:06;4.95;;;2.72;;
27804;SDS011;15183;51.350;11.102;2022-09-25T15:43:37;4.88;;;3.20;;
27804;SDS011;15183;51.350;11.102;2022-09-25T15:48:36;4.32;;;2.45;;
27804;SDS011;15183;51.350;11.102;2022-09-25T15:51:13;4.03;;;2.20;;
27804;SDS011;15183;51.350;11.102;2022-09-25T15:53:48;5.05;;;3.78;;
27804;SDS011;15183;51.350;11.102;2022-09-25T15:59:16;4.68;;;2.88;;
27804;SDS011;15183;51.350;11.102;2022-09-25T16:01:47;4.95;;;3.75;;
27804;SDS011;15183;51.350;11.102;2022-09-25T16:04:32;5.90;;;3.38;;
27804;SDS011;15183;51.350;11.102;2022-09-25T16:07:25;13.40;;;7.20;;
27804;SDS011;15183;51.350;11.102;2022-09-25T16:10:03;6.90;;;4.35;;
27804;SDS011;15183;51.350;11.102;2022-09-25T16:12:53;6.95;;;3.80;;
27804;SDS011;15183;51.350;11.102;2022-09-25T16:17:55;9.05;;;4.43;;
27804;SDS011;15183;51.350;11.102;2022-09-25T16:20:38;6.78;;;3.88;;
27804;SDS011;15183;51.350;11.102;2022-09-25T16:23:15;12.35;;;5.82;;
27804;SDS011;15183;51.350;11.102;2022-09-25T16:28:21;4.00;;;3.13;;
27804;SDS011;15183;51.350;11.102;2022-09-25T16:30:59;6.03;;;3.30;;
27804;SDS011;15183;51.350;11.102;2022-09-25T16:33:32;5.40;;;3.03;;
27804;SDS011;15183;51.350;11.102;2022-09-25T16:36:11;6.95;;;3.47;;
27804;SDS011;15183;51.350;11.102;2022-09-25T16:41:32;4.68;;;3.10;;
27804;SDS011;15183;51.350;11.102;2022-09-25T16:49:23;6.80;;;3.58;;
27804;SDS011;15183;51.350;11.102;2022-09-25T16:51:50;5.13;;;3.13;;
27804;SDS011;15183;51.350;11.102;2022-09-25T16:54:20;3.47;;;2.40;;
27804;SDS011;15183;51.350;11.102;2022-09-25T16:56:53;3.15;;;2.17;;
27804;SDS011;15183;51.350;11.102;2022-09-25T16:59:22;4.50;;;2.60;;
27804;SDS011;15183;51.350;11.102;2022-09-25T17:01:52;3.20;;;2.47;;
27804;SDS011;15183;51.350;11.102;2022-09-25T17:04:46;3.40;;;2.10;;
27804;SDS011;15183;51.350;11.102;2022-09-25T17:07:15;4.22;;;2.10;;
27804;SDS011;15183;51.350;11.102;2022-09-25T17:09:42;3.03;;;2.10;;
27804;SDS011;15183;51.350;11.102;2022-09-25T17:12:10;4.25;;;2.45;;
27804;SDS011;15183;51.350;11.102;2022-09-25T17:14:44;4.15;;;3.10;;
27804;SDS011;15183;51.350;11.102;2022-09-25T17:17:13;4.05;;;3.33;;
27804;SDS011;15183;51.350;11.102;2022-09-25T17:19:43;11.25;;;4.32;;
27804;SDS011;15183;51.350;11.102;2022-09-25T17:22:10;9.40;;;5.97;;
27804;SDS011;15183;51.350;11.102;2022-09-25T17:24:36;10.10;;;3.78;;
27804;SDS011;15183;51.350;11.102;2022-09-25T17:27:12;4.13;;;3.25;;
27804;SDS011;15183;51.350;11.102;2022-09-25T17:29:41;6.78;;;4.18;;
27804;SDS011;15183;51.350;11.102;2022-09-25T17:32:10;6.45;;;3.38;;
27804;SDS011;15183;51.350;11.102;2022-09-25T17:34:45;3.97;;;2.97;;
27804;SDS011;15183;51.350;11.102;2022-09-25T17:37:12;7.45;;;3.47;;
27804;SDS011;15183;51.350;11.102;2022-09-25T17:39:38;41.33;;;21.42;;
27804;SDS011;15183;51.350;11.102;2022-09-25T17:42:04;23.27;;;14.48;;
27804;SDS011;15183;51.350;11.102;2022-09-25T17:44:31;15.18;;;8.40;;
27804;SDS011;15183;51.350;11.102;2022-09-25T17:46:57;8.63;;;5.85;;
27804;SDS011;15183;51.350;11.102;2022-09-25T17:49:24;9.15;;;6.90;;
27804;SDS011;15183;51.350;11.102;2022-09-25T17:51:50;11.07;;;7.97;;